sensor_id;sensor_type;location;lat;lon;timestamp;P1;durP1;ratioP1;P2;durP2;ratioP2
6463;SDS011;3265;42.694;23.282;2022-07-25T00:02:26;18.33;;;10.98;;
6463;SDS011;3265;42.694;23.282;2022-07-25T00:04:53;46.00;;;11.90;;
6463;SDS011;3265;42.694;23.282;2022-07-25T00:07:19;16.20;;;10.88;;
6463;SDS011;3265;42.694;23.282;2022-07-25T00:09:46;14.57;;;10.13;;
6463;SDS011;3265;42.694;23.282;2022-07-25T00:12:14;21.65;;;14.98;;
6463;SDS011;3265;42.694;23.282;2022-07-25T00:14:41;15.60;;;10.40;;
6463;SDS011;3265;42.694;23.282;2022-07-25T00:17:08;15.05;;;11.00;;
6463;SDS011;3265;42.694;23.282;2022-07-25T00:19:35;17.17;;;10.63;;
6463;SDS011;3265;42.694;23.282;2022-07-25T00:22:03;14.23;;;10.32;;
6463;SDS011;3265;42.694;23.282;2022-07-25T00:24:30;15.40;;;10.85;;
6463;SDS011;3265;42.694;23.282;2022-07-25T00:26:56;16.02;;;10.23;;
6463;SDS011;3265;42.694;23.282;2022-07-25T00:29:25;13.80;;;10.85;;
6463;SDS011;3265;42.694;23.282;2022-07-25T00:31:52;14.40;;;10.65;;
6463;SDS011;3265;42.694;23.282;2022-07-25T00:34:19;16.02;;;10.23;;
6463;SDS011;3265;42.694;23.282;2022-07-25T00:36:46;14.55;;;10.75;;
6463;SDS011;3265;42.694;23.282;2022-07-25T00:39:13;14.43;;;11.18;;
6463;SDS011;3265;42.694;23.282;2022-07-25T00:41:39;11.43;;;10.18;;
6463;SDS011;3265;42.694;23.282;2022-07-25T00:44:08;13.35;;;11.00;;
6463;SDS011;3265;42.694;23.282;2022-07-25T00:46:37;16.30;;;10.77;;
6463;SDS011;3265;42.694;23.282;2022-07-25T00:49:04;17.00;;;11.50;;
6463;SDS011;3265;42.694;23.282;2022-07-25T00:51:31;18.85;;;11.27;;
6463;SDS011;3265;42.694;23.282;2022-07-25T00:53:58;13.88;;;11.68;;
6463;SDS011;3265;42.694;23.282;2022-07-25T00:56:26;17.15;;;11.32;;
6463;SDS011;3265;42.694;23.282;2022-07-25T00:58:53;15.10;;;11.60;;
6463;SDS011;3265;42.694;23.282;2022-07-25T01:01:20;19.98;;;11.68;;
6463;SDS011;3265;42.694;23.282;2022-07-25T01:06:33;15.07;;;11.32;;
6463;SDS011;3265;42.694;23.282;2022-07-25T01:09:00;14.88;;;10.88;;
6463;SDS011;3265;42.694;23.282;2022-07-25T01:11:27;13.25;;;11.13;;
6463;SDS011;3265;42.694;23.282;2022-07-25T01:13:54;15.40;;;11.30;;
6463;SDS011;3265;42.694;23.282;2022-07-25T01:16:21;12.73;;;11.43;;
6463;SDS011;3265;42.694;23.282;2022-07-25T01:18:48;14.30;;;11.50;;
6463;SDS011;3265;42.694;23.282;2022-07-25T01:21:16;15.50;;;11.15;;
6463;SDS011;3265;42.694;23.282;2022-07-25T01:23:43;16.98;;;11.23;;
6463;SDS011;3265;42.694;23.282;2022-07-25T01:26:10;14.02;;;10.90;;
6463;SDS011;3265;42.694;23.282;2022-07-25T01:28:37;16.45;;;11.07;;
6463;SDS011;3265;42.694;23.282;2022-07-25T01:31:04;16.17;;;10.77;;
6463;SDS011;3265;42.694;23.282;2022-07-25T01:33:31;19.58;;;11.40;;
6463;SDS011;3265;42.694;23.282;2022-07-25T01:35:58;15.80;;;11.52;;
6463;SDS011;3265;42.694;23.282;2022-07-25T01:38:27;17.95;;;11.43;;
6463;SDS011;3265;42.694;23.282;2022-07-25T01:40:53;16.35;;;11.20;;
6463;SDS011;3265;42.694;23.282;2022-07-25T01:43:20;12.80;;;11.25;;
6463;SDS011;3265;42.694;23.282;2022-07-25T01:45:47;15.00;;;10.98;;
6463;SDS011;3265;42.694;23.282;2022-07-25T01:48:14;15.10;;;11.15;;
6463;SDS011;3265;42.694;23.282;2022-07-25T01:50:41;15.95;;;10.98;;
6463;SDS011;3265;42.694;23.282;2022-07-25T01:53:08;16.08;;;10.90;;
6463;SDS011;3265;42.694;23.282;2022-07-25T01:55:36;18.58;;;10.98;;
6463;SDS011;3265;42.694;23.282;2022-07-25T01:58:03;15.05;;;11.07;;
6463;SDS011;3265;42.694;23.282;2022-07-25T02:00:30;14.02;;;11.43;;
6463;SDS011;3265;42.694;23.282;2022-07-25T02:02:56;15.02;;;11.20;;
6463;SDS011;3265;42.694;23.282;2022-07-25T02:05:41;12.50;;;10.70;;
6463;SDS011;3265;42.694;23.282;2022-07-25T02:08:07;14.55;;;10.90;;
6463;SDS011;3265;42.694;23.282;2022-07-25T02:10:36;15.45;;;10.88;;
6463;SDS011;3265;42.694;23.282;2022-07-25T02:13:02;14.57;;;11.45;;
6463;SDS011;3265;42.694;23.282;2022-07-25T02:15:29;12.35;;;11.05;;
6463;SDS011;3265;42.694;23.282;2022-07-25T02:17:56;18.20;;;11.50;;
6463;SDS011;3265;42.694;23.282;2022-07-25T02:20:23;14.57;;;11.70;;
6463;SDS011;3265;42.694;23.282;2022-07-25T02:22:50;13.60;;;11.38;;
6463;SDS011;3265;42.694;23.282;2022-07-25T02:25:17;14.57;;;12.10;;
6463;SDS011;3265;42.694;23.282;2022-07-25T02:27:45;15.18;;;11.20;;
6463;SDS011;3265;42.694;23.282;2022-07-25T02:30:12;14.32;;;11.10;;
6463;SDS011;3265;42.694;23.282;2022-07-25T02:32:39;15.10;;;10.52;;
6463;SDS011;3265;42.694;23.282;2022-07-25T02:35:06;14.93;;;10.95;;
6463;SDS011;3265;42.694;23.282;2022-07-25T02:37:34;17.83;;;12.30;;
6463;SDS011;3265;42.694;23.282;2022-07-25T02:40:00;17.05;;;12.15;;
6463;SDS011;3265;42.694;23.282;2022-07-25T02:42:27;17.90;;;11.25;;
6463;SDS011;3265;42.694;23.282;2022-07-25T02:44:55;14.73;;;11.82;;
6463;SDS011;3265;42.694;23.282;2022-07-25T02:47:22;16.42;;;11.30;;
6463;SDS011;3265;42.694;23.282;2022-07-25T02:49:49;14.52;;;10.85;;
6463;SDS011;3265;42.694;23.282;2022-07-25T02:52:16;15.15;;;11.57;;
6463;SDS011;3265;42.694;23.282;2022-07-25T02:54:43;15.90;;;11.93;;
6463;SDS011;3265;42.694;23.282;2022-07-25T02:57:09;16.63;;;11.57;;
6463;SDS011;3265;42.694;23.282;2022-07-25T02:59:36;17.73;;;12.50;;
6463;SDS011;3265;42.694;23.282;2022-07-25T03:02:05;15.95;;;11.77;;
6463;SDS011;3265;42.694;23.282;2022-07-25T03:04:31;13.73;;;11.35;;
6463;SDS011;3265;42.694;23.282;2022-07-25T03:06:58;15.80;;;11.88;;
6463;SDS011;3265;42.694;23.282;2022-07-25T03:09:25;16.35;;;12.20;;
6463;SDS011;3265;42.694;23.282;2022-07-25T03:11:52;19.60;;;12.68;;
6463;SDS011;3265;42.694;23.282;2022-07-25T03:14:19;24.67;;;12.20;;
6463;SDS011;3265;42.694;23.282;2022-07-25T03:16:46;17.77;;;11.57;;
6463;SDS011;3265;42.694;23.282;2022-07-25T03:19:14;17.92;;;11.38;;
6463;SDS011;3265;42.694;23.282;2022-07-25T03:21:41;17.17;;;11.73;;
6463;SDS011;3265;42.694;23.282;2022-07-25T03:24:08;16.67;;;12.20;;
6463;SDS011;3265;42.694;23.282;2022-07-25T03:26:35;17.20;;;11.90;;
6463;SDS011;3265;42.694;23.282;2022-07-25T03:29:05;15.30;;;11.98;;
6463;SDS011;3265;42.694;23.282;2022-07-25T03:31:32;16.25;;;11.57;;
6463;SDS011;3265;42.694;23.282;2022-07-25T03:33:58;15.93;;;11.75;;
6463;SDS011;3265;42.694;23.282;2022-07-25T03:36:27;22.17;;;11.10;;
6463;SDS011;3265;42.694;23.282;2022-07-25T03:38:54;18.00;;;11.23;;
6463;SDS011;3265;42.694;23.282;2022-07-25T03:41:21;16.88;;;11.45;;
6463;SDS011;3265;42.694;23.282;2022-07-25T03:43:48;16.48;;;11.68;;
6463;SDS011;3265;42.694;23.282;2022-07-25T03:46:15;15.75;;;11.15;;
6463;SDS011;3265;42.694;23.282;2022-07-25T03:48:42;15.98;;;11.10;;
6463;SDS011;3265;42.694;23.282;2022-07-25T03:51:09;18.08;;;10.52;;
6463;SDS011;3265;42.694;23.282;2022-07-25T03:53:37;15.07;;;11.10;;
6463;SDS011;3265;42.694;23.282;2022-07-25T03:56:17;15.60;;;11.32;;
6463;SDS011;3265;42.694;23.282;2022-07-25T03:58:44;13.82;;;11.23;;
6463;SDS011;3265;42.694;23.282;2022-07-25T04:01:11;14.15;;;10.88;;
6463;SDS011;3265;42.694;23.282;2022-07-25T04:03:38;20.38;;;11.25;;
6463;SDS011;3265;42.694;23.282;2022-07-25T04:06:05;14.07;;;11.50;;
6463;SDS011;3265;42.694;23.282;2022-07-25T04:08:32;13.80;;;10.65;;
6463;SDS011;3265;42.694;23.282;2022-07-25T04:11:00;13.80;;;10.70;;
6463;SDS011;3265;42.694;23.282;2022-07-25T04:13:27;16.77;;;11.70;;
6463;SDS011;3265;42.694;23.282;2022-07-25T04:15:54;16.08;;;12.75;;
6463;SDS011;3265;42.694;23.282;2022-07-25T04:18:21;17.17;;;11.57;;
6463;SDS011;3265;42.694;23.282;2022-07-25T04:20:49;18.77;;;11.27;;
6463;SDS011;3265;42.694;23.282;2022-07-25T04:23:16;14.52;;;11.13;;
6463;SDS011;3265;42.694;23.282;2022-07-25T04:25:43;14.90;;;10.57;;
6463;SDS011;3265;42.694;23.282;2022-07-25T04:28:11;16.92;;;10.65;;
6463;SDS011;3265;42.694;23.282;2022-07-25T04:30:38;17.27;;;10.73;;
6463;SDS011;3265;42.694;23.282;2022-07-25T04:33:05;18.10;;;10.25;;
6463;SDS011;3265;42.694;23.282;2022-07-25T04:35:32;16.13;;;10.43;;
6463;SDS011;3265;42.694;23.282;2022-07-25T04:37:58;14.02;;;10.27;;
6463;SDS011;3265;42.694;23.282;2022-07-25T04:40:25;13.65;;;9.57;;
6463;SDS011;3265;42.694;23.282;2022-07-25T04:42:53;15.02;;;9.93;;
6463;SDS011;3265;42.694;23.282;2022-07-25T04:45:21;14.40;;;9.63;;
6463;SDS011;3265;42.694;23.282;2022-07-25T04:47:48;12.43;;;9.88;;
6463;SDS011;3265;42.694;23.282;2022-07-25T04:50:15;15.45;;;10.00;;
6463;SDS011;3265;42.694;23.282;2022-07-25T04:52:42;15.38;;;9.50;;
6463;SDS011;3265;42.694;23.282;2022-07-25T04:55:09;17.00;;;10.55;;
6463;SDS011;3265;42.694;23.282;2022-07-25T04:57:36;12.60;;;9.43;;
6463;SDS011;3265;42.694;23.282;2022-07-25T05:00:04;18.08;;;9.20;;
6463;SDS011;3265;42.694;23.282;2022-07-25T05:02:34;11.13;;;9.40;;
6463;SDS011;3265;42.694;23.282;2022-07-25T05:05:02;14.75;;;9.57;;
6463;SDS011;3265;42.694;23.282;2022-07-25T05:07:30;11.70;;;9.25;;
6463;SDS011;3265;42.694;23.282;2022-07-25T05:09:57;16.77;;;9.23;;
6463;SDS011;3265;42.694;23.282;2022-07-25T05:12:24;11.27;;;9.40;;
6463;SDS011;3265;42.694;23.282;2022-07-25T05:14:51;12.73;;;9.32;;
6463;SDS011;3265;42.694;23.282;2022-07-25T05:17:18;10.60;;;8.80;;
6463;SDS011;3265;42.694;23.282;2022-07-25T05:19:46;11.55;;;9.32;;
6463;SDS011;3265;42.694;23.282;2022-07-25T05:22:13;13.77;;;9.27;;
6463;SDS011;3265;42.694;23.282;2022-07-25T05:24:40;13.82;;;9.63;;
6463;SDS011;3265;42.694;23.282;2022-07-25T05:27:07;15.38;;;9.15;;
6463;SDS011;3265;42.694;23.282;2022-07-25T05:29:33;12.55;;;9.07;;
6463;SDS011;3265;42.694;23.282;2022-07-25T05:32:00;13.98;;;9.25;;
6463;SDS011;3265;42.694;23.282;2022-07-25T05:34:27;14.05;;;9.32;;
6463;SDS011;3265;42.694;23.282;2022-07-25T05:36:56;10.43;;;9.07;;
6463;SDS011;3265;42.694;23.282;2022-07-25T05:39:22;13.07;;;9.55;;
6463;SDS011;3265;42.694;23.282;2022-07-25T05:41:49;14.45;;;8.57;;
6463;SDS011;3265;42.694;23.282;2022-07-25T05:44:16;11.95;;;9.05;;
6463;SDS011;3265;42.694;23.282;2022-07-25T05:46:43;13.02;;;9.00;;
6463;SDS011;3265;42.694;23.282;2022-07-25T05:49:10;11.45;;;9.32;;
6463;SDS011;3265;42.694;23.282;2022-07-25T05:51:37;10.07;;;8.32;;
6463;SDS011;3265;42.694;23.282;2022-07-25T05:54:06;12.95;;;8.63;;
6463;SDS011;3265;42.694;23.282;2022-07-25T05:56:32;12.85;;;9.85;;
6463;SDS011;3265;42.694;23.282;2022-07-25T05:58:59;11.32;;;8.95;;
6463;SDS011;3265;42.694;23.282;2022-07-25T06:01:26;12.32;;;8.80;;
6463;SDS011;3265;42.694;23.282;2022-07-25T06:03:53;11.95;;;9.05;;
6463;SDS011;3265;42.694;23.282;2022-07-25T06:06:20;11.40;;;8.85;;
6463;SDS011;3265;42.694;23.282;2022-07-25T06:08:46;14.05;;;9.27;;
6463;SDS011;3265;42.694;23.282;2022-07-25T06:11:15;10.60;;;8.88;;
6463;SDS011;3265;42.694;23.282;2022-07-25T06:13:42;10.75;;;8.93;;
6463;SDS011;3265;42.694;23.282;2022-07-25T06:16:08;14.05;;;8.90;;
6463;SDS011;3265;42.694;23.282;2022-07-25T06:18:35;13.82;;;8.32;;
6463;SDS011;3265;42.694;23.282;2022-07-25T06:21:02;10.00;;;8.77;;
6463;SDS011;3265;42.694;23.282;2022-07-25T06:23:30;10.30;;;8.52;;
6463;SDS011;3265;42.694;23.282;2022-07-25T06:25:57;11.48;;;8.95;;
6463;SDS011;3265;42.694;23.282;2022-07-25T06:28:25;13.95;;;9.70;;
6463;SDS011;3265;42.694;23.282;2022-07-25T06:30:52;13.10;;;8.98;;
6463;SDS011;3265;42.694;23.282;2022-07-25T06:33:19;12.20;;;9.43;;
6463;SDS011;3265;42.694;23.282;2022-07-25T06:35:46;14.10;;;9.65;;
6463;SDS011;3265;42.694;23.282;2022-07-25T06:38:13;15.13;;;9.43;;
6463;SDS011;3265;42.694;23.282;2022-07-25T06:40:40;12.05;;;9.02;;
6463;SDS011;3265;42.694;23.282;2022-07-25T06:43:07;11.98;;;8.43;;
6463;SDS011;3265;42.694;23.282;2022-07-25T06:45:35;14.05;;;9.07;;
6463;SDS011;3265;42.694;23.282;2022-07-25T06:48:02;10.85;;;7.63;;
6463;SDS011;3265;42.694;23.282;2022-07-25T06:50:29;13.52;;;8.90;;
6463;SDS011;3265;42.694;23.282;2022-07-25T06:52:57;12.02;;;9.18;;
6463;SDS011;3265;42.694;23.282;2022-07-25T06:55:24;10.95;;;7.82;;
6463;SDS011;3265;42.694;23.282;2022-07-25T06:57:51;12.38;;;9.15;;
6463;SDS011;3265;42.694;23.282;2022-07-25T07:00:18;11.73;;;9.30;;
6463;SDS011;3265;42.694;23.282;2022-07-25T07:02:50;10.52;;;9.10;;
6463;SDS011;3265;42.694;23.282;2022-07-25T07:05:24;11.65;;;8.88;;
6463;SDS011;3265;42.694;23.282;2022-07-25T07:07:53;11.85;;;9.27;;
6463;SDS011;3265;42.694;23.282;2022-07-25T07:10:21;11.70;;;9.18;;
6463;SDS011;3265;42.694;23.282;2022-07-25T07:12:48;9.90;;;8.90;;
6463;SDS011;3265;42.694;23.282;2022-07-25T07:15:16;11.75;;;8.77;;
6463;SDS011;3265;42.694;23.282;2022-07-25T07:17:46;12.38;;;8.77;;
6463;SDS011;3265;42.694;23.282;2022-07-25T07:20:18;13.40;;;9.10;;
6463;SDS011;3265;42.694;23.282;2022-07-25T07:22:45;11.65;;;9.15;;
6463;SDS011;3265;42.694;23.282;2022-07-25T07:25:21;10.63;;;9.43;;
6463;SDS011;3265;42.694;23.282;2022-07-25T07:27:49;10.00;;;8.88;;
6463;SDS011;3265;42.694;23.282;2022-07-25T07:30:17;9.98;;;7.97;;
6463;SDS011;3265;42.694;23.282;2022-07-25T07:32:44;10.05;;;8.60;;
6463;SDS011;3265;42.694;23.282;2022-07-25T07:35:13;12.80;;;9.18;;
6463;SDS011;3265;42.694;23.282;2022-07-25T07:37:43;13.75;;;9.30;;
6463;SDS011;3265;42.694;23.282;2022-07-25T07:40:11;13.32;;;9.05;;
6463;SDS011;3265;42.694;23.282;2022-07-25T07:42:39;12.18;;;9.57;;
6463;SDS011;3265;42.694;23.282;2022-07-25T07:45:10;10.77;;;9.40;;
6463;SDS011;3265;42.694;23.282;2022-07-25T07:47:38;11.05;;;8.88;;
6463;SDS011;3265;42.694;23.282;2022-07-25T07:50:06;11.50;;;9.60;;
6463;SDS011;3265;42.694;23.282;2022-07-25T07:52:35;10.13;;;8.90;;
6463;SDS011;3265;42.694;23.282;2022-07-25T07:55:02;11.05;;;8.80;;
6463;SDS011;3265;42.694;23.282;2022-07-25T07:57:47;12.48;;;9.10;;
6463;SDS011;3265;42.694;23.282;2022-07-25T08:00:14;12.00;;;9.15;;
6463;SDS011;3265;42.694;23.282;2022-07-25T08:02:42;10.27;;;9.05;;
6463;SDS011;3265;42.694;23.282;2022-07-25T08:05:11;14.02;;;9.32;;
6463;SDS011;3265;42.694;23.282;2022-07-25T08:07:40;13.27;;;9.55;;
6463;SDS011;3265;42.694;23.282;2022-07-25T08:10:07;9.48;;;8.48;;
6463;SDS011;3265;42.694;23.282;2022-07-25T08:12:38;10.88;;;8.73;;
6463;SDS011;3265;42.694;23.282;2022-07-25T08:15:07;11.25;;;8.95;;
6463;SDS011;3265;42.694;23.282;2022-07-25T08:17:35;10.80;;;9.40;;
6463;SDS011;3265;42.694;23.282;2022-07-25T08:20:02;13.27;;;9.00;;
6463;SDS011;3265;42.694;23.282;2022-07-25T08:22:36;12.75;;;9.25;;
6463;SDS011;3265;42.694;23.282;2022-07-25T08:25:07;10.23;;;8.70;;
6463;SDS011;3265;42.694;23.282;2022-07-25T08:27:35;12.00;;;9.15;;
6463;SDS011;3265;42.694;23.282;2022-07-25T08:30:02;10.20;;;9.10;;
6463;SDS011;3265;42.694;23.282;2022-07-25T08:32:30;10.40;;;8.55;;
6463;SDS011;3265;42.694;23.282;2022-07-25T08:34:57;11.93;;;9.00;;
6463;SDS011;3265;42.694;23.282;2022-07-25T08:37:26;12.60;;;9.02;;
6463;SDS011;3265;42.694;23.282;2022-07-25T08:39:53;9.75;;;8.60;;
6463;SDS011;3265;42.694;23.282;2022-07-25T08:42:22;10.32;;;8.23;;
6463;SDS011;3265;42.694;23.282;2022-07-25T08:44:54;11.77;;;9.25;;
6463;SDS011;3265;42.694;23.282;2022-07-25T08:47:24;9.63;;;8.48;;
6463;SDS011;3265;42.694;23.282;2022-07-25T08:49:53;10.48;;;7.88;;
6463;SDS011;3265;42.694;23.282;2022-07-25T08:52:21;11.02;;;7.90;;
6463;SDS011;3265;42.694;23.282;2022-07-25T08:54:49;10.60;;;8.68;;
6463;SDS011;3265;42.694;23.282;2022-07-25T08:57:16;9.90;;;8.32;;
6463;SDS011;3265;42.694;23.282;2022-07-25T08:59:44;12.23;;;8.55;;
6463;SDS011;3265;42.694;23.282;2022-07-25T09:02:11;11.50;;;8.52;;
6463;SDS011;3265;42.694;23.282;2022-07-25T09:04:39;9.18;;;8.23;;
6463;SDS011;3265;42.694;23.282;2022-07-25T09:07:07;11.10;;;8.68;;
6463;SDS011;3265;42.694;23.282;2022-07-25T09:09:35;9.07;;;8.18;;
6463;SDS011;3265;42.694;23.282;2022-07-25T09:12:04;12.40;;;8.82;;
6463;SDS011;3265;42.694;23.282;2022-07-25T09:14:39;10.70;;;8.32;;
6463;SDS011;3265;42.694;23.282;2022-07-25T09:17:08;17.25;;;8.65;;
6463;SDS011;3265;42.694;23.282;2022-07-25T09:19:35;11.25;;;8.63;;
6463;SDS011;3265;42.694;23.282;2022-07-25T09:22:03;13.45;;;8.70;;
6463;SDS011;3265;42.694;23.282;2022-07-25T09:24:31;9.48;;;8.57;;
6463;SDS011;3265;42.694;23.282;2022-07-25T09:27:00;8.63;;;7.78;;
6463;SDS011;3265;42.694;23.282;2022-07-25T09:29:34;10.20;;;8.63;;
6463;SDS011;3265;42.694;23.282;2022-07-25T09:32:12;11.30;;;8.23;;
6463;SDS011;3265;42.694;23.282;2022-07-25T09:34:43;10.23;;;8.60;;
6463;SDS011;3265;42.694;23.282;2022-07-25T09:37:11;11.10;;;8.60;;
6463;SDS011;3265;42.694;23.282;2022-07-25T09:39:40;10.65;;;8.27;;
6463;SDS011;3265;42.694;23.282;2022-07-25T09:42:18;12.43;;;8.20;;
6463;SDS011;3265;42.694;23.282;2022-07-25T09:44:56;10.25;;;8.45;;
6463;SDS011;3265;42.694;23.282;2022-07-25T09:47:31;9.02;;;8.10;;
6463;SDS011;3265;42.694;23.282;2022-07-25T09:49:59;8.77;;;7.85;;
6463;SDS011;3265;42.694;23.282;2022-07-25T09:52:26;8.98;;;8.07;;
6463;SDS011;3265;42.694;23.282;2022-07-25T09:54:53;9.15;;;8.15;;
6463;SDS011;3265;42.694;23.282;2022-07-25T09:57:20;8.63;;;7.82;;
6463;SDS011;3265;42.694;23.282;2022-07-25T09:59:48;8.52;;;7.63;;
6463;SDS011;3265;42.694;23.282;2022-07-25T10:02:19;10.30;;;8.30;;
6463;SDS011;3265;42.694;23.282;2022-07-25T10:05:02;9.13;;;8.18;;
6463;SDS011;3265;42.694;23.282;2022-07-25T10:07:38;11.68;;;8.20;;
6463;SDS011;3265;42.694;23.282;2022-07-25T10:10:07;7.88;;;7.07;;
6463;SDS011;3265;42.694;23.282;2022-07-25T10:12:34;8.70;;;7.80;;
6463;SDS011;3265;42.694;23.282;2022-07-25T10:15:06;8.32;;;7.50;;
6463;SDS011;3265;42.694;23.282;2022-07-25T10:17:35;8.48;;;7.43;;
6463;SDS011;3265;42.694;23.282;2022-07-25T10:20:05;10.10;;;7.88;;
6463;SDS011;3265;42.694;23.282;2022-07-25T10:22:38;9.15;;;7.68;;
6463;SDS011;3265;42.694;23.282;2022-07-25T10:25:09;10.57;;;7.40;;
6463;SDS011;3265;42.694;23.282;2022-07-25T10:27:41;8.40;;;7.60;;
6463;SDS011;3265;42.694;23.282;2022-07-25T10:30:22;9.05;;;7.43;;
6463;SDS011;3265;42.694;23.282;2022-07-25T10:32:55;8.55;;;7.65;;
6463;SDS011;3265;42.694;23.282;2022-07-25T10:35:24;8.38;;;7.57;;
6463;SDS011;3265;42.694;23.282;2022-07-25T10:37:52;11.18;;;8.07;;
6463;SDS011;3265;42.694;23.282;2022-07-25T10:40:24;7.93;;;7.22;;
6463;SDS011;3265;42.694;23.282;2022-07-25T10:42:56;9.20;;;7.32;;
6463;SDS011;3265;42.694;23.282;2022-07-25T10:45:32;10.88;;;7.40;;
6463;SDS011;3265;42.694;23.282;2022-07-25T10:48:08;10.88;;;7.65;;
6463;SDS011;3265;42.694;23.282;2022-07-25T10:50:49;7.78;;;6.80;;
6463;SDS011;3265;42.694;23.282;2022-07-25T10:53:27;7.70;;;6.57;;
6463;SDS011;3265;42.694;23.282;2022-07-25T10:56:01;8.23;;;6.68;;
6463;SDS011;3265;42.694;23.282;2022-07-25T10:58:40;8.30;;;6.72;;
6463;SDS011;3265;42.694;23.282;2022-07-25T11:01:18;7.03;;;6.32;;
6463;SDS011;3265;42.694;23.282;2022-07-25T11:03:47;7.10;;;6.40;;
6463;SDS011;3265;42.694;23.282;2022-07-25T11:06:15;7.03;;;6.32;;
6463;SDS011;3265;42.694;23.282;2022-07-25T11:08:54;8.10;;;7.22;;
6463;SDS011;3265;42.694;23.282;2022-07-25T11:11:31;8.90;;;6.88;;
6463;SDS011;3265;42.694;23.282;2022-07-25T11:13:58;9.00;;;6.75;;
6463;SDS011;3265;42.694;23.282;2022-07-25T11:16:26;7.82;;;6.63;;
6463;SDS011;3265;42.694;23.282;2022-07-25T11:18:53;7.20;;;6.55;;
6463;SDS011;3265;42.694;23.282;2022-07-25T11:21:21;7.78;;;6.97;;
6463;SDS011;3265;42.694;23.282;2022-07-25T11:23:49;11.05;;;6.70;;
6463;SDS011;3265;42.694;23.282;2022-07-25T11:26:16;7.97;;;6.30;;
6463;SDS011;3265;42.694;23.282;2022-07-25T11:28:44;7.70;;;6.88;;
6463;SDS011;3265;42.694;23.282;2022-07-25T11:31:12;7.50;;;6.70;;
6463;SDS011;3265;42.694;23.282;2022-07-25T11:33:41;7.93;;;6.32;;
6463;SDS011;3265;42.694;23.282;2022-07-25T11:36:09;8.57;;;6.55;;
6463;SDS011;3265;42.694;23.282;2022-07-25T11:38:38;7.53;;;6.05;;
6463;SDS011;3265;42.694;23.282;2022-07-25T11:41:05;7.90;;;6.13;;
6463;SDS011;3265;42.694;23.282;2022-07-25T11:43:32;7.22;;;5.93;;
6463;SDS011;3265;42.694;23.282;2022-07-25T11:46:00;7.07;;;6.38;;
6463;SDS011;3265;42.694;23.282;2022-07-25T11:48:29;8.38;;;6.30;;
6463;SDS011;3265;42.694;23.282;2022-07-25T11:50:57;6.82;;;6.13;;
6463;SDS011;3265;42.694;23.282;2022-07-25T11:53:39;8.00;;;6.47;;
6463;SDS011;3265;42.694;23.282;2022-07-25T11:56:16;7.53;;;6.38;;
6463;SDS011;3265;42.694;23.282;2022-07-25T11:58:55;9.55;;;6.93;;
6463;SDS011;3265;42.694;23.282;2022-07-25T12:01:24;10.32;;;7.05;;
6463;SDS011;3265;42.694;23.282;2022-07-25T12:04:06;9.20;;;7.07;;
6463;SDS011;3265;42.694;23.282;2022-07-25T12:06:34;11.15;;;6.85;;
6463;SDS011;3265;42.694;23.282;2022-07-25T12:09:09;10.27;;;6.47;;
6463;SDS011;3265;42.694;23.282;2022-07-25T12:11:37;7.20;;;6.50;;
6463;SDS011;3265;42.694;23.282;2022-07-25T12:14:04;7.55;;;6.85;;
6463;SDS011;3265;42.694;23.282;2022-07-25T12:16:32;8.82;;;6.60;;
6463;SDS011;3265;42.694;23.282;2022-07-25T12:19:00;10.63;;;7.10;;
6463;SDS011;3265;42.694;23.282;2022-07-25T12:21:27;7.30;;;6.60;;
6463;SDS011;3265;42.694;23.282;2022-07-25T12:23:54;7.00;;;6.40;;
6463;SDS011;3265;42.694;23.282;2022-07-25T12:26:23;7.63;;;6.90;;
6463;SDS011;3265;42.694;23.282;2022-07-25T12:28:50;8.93;;;7.10;;
6463;SDS011;3265;42.694;23.282;2022-07-25T12:31:17;9.60;;;6.68;;
6463;SDS011;3265;42.694;23.282;2022-07-25T12:33:44;8.85;;;6.93;;
6463;SDS011;3265;42.694;23.282;2022-07-25T12:36:13;7.93;;;6.07;;
6463;SDS011;3265;42.694;23.282;2022-07-25T12:38:40;10.45;;;6.45;;
6463;SDS011;3265;42.694;23.282;2022-07-25T12:41:07;7.60;;;6.90;;
6463;SDS011;3265;42.694;23.282;2022-07-25T12:43:36;6.85;;;6.25;;
6463;SDS011;3265;42.694;23.282;2022-07-25T12:46:04;8.50;;;6.60;;
6463;SDS011;3265;42.694;23.282;2022-07-25T12:48:32;7.63;;;6.28;;
6463;SDS011;3265;42.694;23.282;2022-07-25T12:51:02;7.75;;;6.07;;
6463;SDS011;3265;42.694;23.282;2022-07-25T12:53:29;7.80;;;7.00;;
6463;SDS011;3265;42.694;23.282;2022-07-25T12:55:56;8.80;;;6.53;;
6463;SDS011;3265;42.694;23.282;2022-07-25T12:58:23;7.72;;;6.53;;
6463;SDS011;3265;42.694;23.282;2022-07-25T13:00:52;7.57;;;6.72;;
6463;SDS011;3265;42.694;23.282;2022-07-25T13:03:22;7.82;;;6.88;;
6463;SDS011;3265;42.694;23.282;2022-07-25T13:06:05;8.18;;;6.90;;
6463;SDS011;3265;42.694;23.282;2022-07-25T13:08:32;7.32;;;6.63;;
6463;SDS011;3265;42.694;23.282;2022-07-25T13:11:01;7.00;;;6.30;;
6463;SDS011;3265;42.694;23.282;2022-07-25T13:13:28;7.85;;;6.78;;
6463;SDS011;3265;42.694;23.282;2022-07-25T13:15:57;7.60;;;6.90;;
6463;SDS011;3265;42.694;23.282;2022-07-25T13:18:24;7.32;;;6.47;;
6463;SDS011;3265;42.694;23.282;2022-07-25T13:20:50;7.00;;;6.30;;
6463;SDS011;3265;42.694;23.282;2022-07-25T13:23:17;8.75;;;6.47;;
6463;SDS011;3265;42.694;23.282;2022-07-25T13:25:44;7.20;;;6.50;;
6463;SDS011;3265;42.694;23.282;2022-07-25T13:28:11;7.40;;;6.68;;
6463;SDS011;3265;42.694;23.282;2022-07-25T13:30:38;11.30;;;6.53;;
6463;SDS011;3265;42.694;23.282;2022-07-25T13:33:06;8.20;;;6.72;;
6463;SDS011;3265;42.694;23.282;2022-07-25T13:35:34;7.35;;;6.60;;
6463;SDS011;3265;42.694;23.282;2022-07-25T13:38:02;7.97;;;6.43;;
6463;SDS011;3265;42.694;23.282;2022-07-25T13:40:29;7.68;;;6.90;;
6463;SDS011;3265;42.694;23.282;2022-07-25T13:42:56;9.38;;;6.53;;
6463;SDS011;3265;42.694;23.282;2022-07-25T13:45:23;15.10;;;6.32;;
6463;SDS011;3265;42.694;23.282;2022-07-25T13:47:50;9.63;;;6.70;;
6463;SDS011;3265;42.694;23.282;2022-07-25T13:50:18;8.95;;;6.55;;
6463;SDS011;3265;42.694;23.282;2022-07-25T13:52:45;7.15;;;6.45;;
6463;SDS011;3265;42.694;23.282;2022-07-25T13:55:12;9.85;;;6.47;;
6463;SDS011;3265;42.694;23.282;2022-07-25T13:57:39;8.15;;;6.32;;
6463;SDS011;3265;42.694;23.282;2022-07-25T14:00:06;6.90;;;6.20;;
6463;SDS011;3265;42.694;23.282;2022-07-25T14:02:34;7.00;;;6.30;;
6463;SDS011;3265;42.694;23.282;2022-07-25T14:05:01;8.30;;;6.32;;
6463;SDS011;3265;42.694;23.282;2022-07-25T14:07:29;7.43;;;6.28;;
6463;SDS011;3265;42.694;23.282;2022-07-25T14:09:56;6.55;;;5.95;;
6463;SDS011;3265;42.694;23.282;2022-07-25T14:12:23;6.80;;;6.20;;
6463;SDS011;3265;42.694;23.282;2022-07-25T14:14:50;6.85;;;6.15;;
6463;SDS011;3265;42.694;23.282;2022-07-25T14:17:17;9.52;;;6.70;;
6463;SDS011;3265;42.694;23.282;2022-07-25T14:19:44;7.60;;;5.72;;
6463;SDS011;3265;42.694;23.282;2022-07-25T14:22:11;9.38;;;6.80;;
6463;SDS011;3265;42.694;23.282;2022-07-25T14:24:39;9.35;;;6.53;;
6463;SDS011;3265;42.694;23.282;2022-07-25T14:27:06;7.25;;;6.15;;
6463;SDS011;3265;42.694;23.282;2022-07-25T14:29:34;10.32;;;6.28;;
6463;SDS011;3265;42.694;23.282;2022-07-25T14:32:02;6.32;;;5.65;;
6463;SDS011;3265;42.694;23.282;2022-07-25T14:34:30;7.78;;;6.13;;
6463;SDS011;3265;42.694;23.282;2022-07-25T14:36:57;7.05;;;6.35;;
6463;SDS011;3265;42.694;23.282;2022-07-25T14:39:24;6.32;;;5.72;;
6463;SDS011;3265;42.694;23.282;2022-07-25T14:41:52;7.20;;;6.38;;
6463;SDS011;3265;42.694;23.282;2022-07-25T14:44:19;7.40;;;5.88;;
6463;SDS011;3265;42.694;23.282;2022-07-25T14:46:46;6.15;;;5.55;;
6463;SDS011;3265;42.694;23.282;2022-07-25T14:49:14;6.13;;;5.53;;
6463;SDS011;3265;42.694;23.282;2022-07-25T14:51:41;8.07;;;6.10;;
6463;SDS011;3265;42.694;23.282;2022-07-25T14:54:09;6.28;;;5.68;;
6463;SDS011;3265;42.694;23.282;2022-07-25T14:56:37;7.70;;;6.45;;
6463;SDS011;3265;42.694;23.282;2022-07-25T14:59:05;9.43;;;6.32;;